Time,TemperatureF,DewpointF,PressureIn,WindDirection,WindDirectionDegrees,WindSpeedMPH,WindSpeedGustMPH,Humidity,HourlyPrecipIn,Conditions,Clouds,dailyrainin,SoftwareType,DateUTC
2013-12-21 00:02:00,69.9,66.8,29.60,NNE,29,6.9,6.9,90,0.00,CLR,,0.00,WeatherDisplay:10.37,2013-12-21 06:02:00,
2013-12-21 00:07:00,69.9,66.8,29.60,South,174,5.8,5.8,90,0.00,CLR,,0.00,WeatherDisplay:10.37,2013-12-21 06:07:00,
2013-12-21 00:12:00,70.1,67.0,29.59,South,178,10.0,10.0,90,0.00,CLR,,0.00,WeatherDisplay:10.37,2013-12-21 06:12:00,
2013-12-21 00:17:00,70.2,66.8,29.60,SSE,153,3.5,3.5,89,0.00,CLR,,0.00,WeatherDisplay:10.37,2013-12-21 06:17:00,
2013-12-21 00:22:00,70.2,66.8,29.61,SSE,167,3.5,3.5,89,0.00,CLR,,0.00,WeatherDisplay:10.37,2013-12-21 06:22:00,
2013-12-21 00:27:00,70.2,66.8,29.64,SE,125,3.0,3.0,89,0.00,CLR,,0.00,WeatherDisplay:10.37,2013-12-21 06:27:00,
2013-12-21 00:32:00,70.3,66.9,29.68,SW,234,9.2,9.2,89,0.00,CLR,,0.00,WeatherDisplay:10.37,2013-12-21 06:32:00,
2013-12-21 00:33:00,70.3,66.9,29.68,WSW,239,6.9,6.9,89,0.00,CLR,,0.00,WeatherDisplay:10.37,2013-12-21 06:33:00,
2013-12-21 00:38:00,70.4,67.0,29.68,West,263,8.1,8.1,89,0.00,CLR,,0.00,WeatherDisplay:10.37,2013-12-21 06:38:00,
2013-12-21 00:43:00,70.4,67.0,29.68,South,185,4.6,4.6,89,0.00,CLR,,0.00,WeatherDisplay:10.37,2013-12-21 06:43:00,
2013-12-21 00:48:00,70.4,67.3,29.68,SW,219,4.0,4.0,90,0.00,CLR,,0.00,WeatherDisplay:10.37,2013-12-21 06:48:00,
2013-12-21 00:53:00,70.1,67.0,29.67,SSW,207,5.8,5.8,90,0.00,CLR,,0.00,WeatherDisplay:10.37,2013-12-21 06:53:00,
2013-12-21 00:58:00,69.9,67.2,29.66,SE,144,6.0,6.0,91,0.00,CLR,,0.00,WeatherDisplay:10.37,2013-12-21 06:58:00,
2013-12-21 01:03:00,69.7,67.0,29.65,SSW,198,2.3,2.3,91,0.00,CLR,,0.00,WeatherDisplay:10.37,2013-12-21 07:03:00,
2013-12-21 01:08:00,69.4,66.7,29.63,SE,138,1.2,1.2,91,0.00,CLR,,0.00,WeatherDisplay:10.37,2013-12-21 07:08:00,
2013-12-21 01:13:00,69.2,66.8,29.63,SSW,194,3.5,3.5,92,0.00,CLR,,0.00,WeatherDisplay:10.37,2013-12-21 07:13:00,
2013-12-21 01:18:00,69.0,66.6,29.64,South,175,0.0,0.0,92,0.00,CLR,,0.00,WeatherDisplay:10.37,2013-12-21 07:18:00,
2013-12-21 01:23:00,68.8,66.4,29.62,South,185,3.5,3.5,92,0.00,CLR,,0.00,WeatherDisplay:10.37,2013-12-21 07:23:00,
2013-12-21 01:28:00,68.7,66.6,29.62,SE,143,1.2,1.2,93,0.00,CLR,,0.00,WeatherDisplay:10.37,2013-12-21 07:28:00,
2013-12-21 01:33:00,68.5,66.4,29.63,SSW,193,3.5,3.5,93,0.00,CLR,,0.00,WeatherDisplay:10.37,2013-12-21 07:33:00,
2013-12-21 01:38:00,68.5,66.4,29.62,SE,144,3.5,3.5,93,0.00,CLR,,0.00,WeatherDisplay:10.37,2013-12-21 07:38:00,
2013-12-21 01:43:00,68.4,66.3,29.62,South,183,1.2,1.2,93,0.00,CLR,,0.00,WeatherDisplay:10.37,2013-12-21 07:43:00,
2013-12-21 01:48:00,68.3,66.2,29.63,South,172,3.0,3.0,93,0.01,RA,,0.01,WeatherDisplay:10.37,2013-12-21 07:48:00,
2013-12-21 01:53:00,68.2,66.4,29.63,SSE,164,2.3,2.3,94,0.01,RA,,0.01,WeatherDisplay:10.37,2013-12-21 07:53:00,
2013-12-21 01:58:00,68.2,66.4,29.63,South,175,2.3,2.3,94,0.01,CLR,,0.01,WeatherDisplay:10.37,2013-12-21 07:58:00,
2013-12-21 02:03:00,68.1,66.3,29.63,SSE,157,4.6,4.6,94,0.01,CLR,,0.01,WeatherDisplay:10.37,2013-12-21 08:03:00,
2013-12-21 02:08:00,68.1,66.3,29.62,SE,134,3.5,3.5,94,0.01,CLR,,0.01,WeatherDisplay:10.37,2013-12-21 08:08:00,
2013-12-21 02:13:00,68.1,66.6,29.62,South,182,3.5,3.5,95,0.02,RA,,0.02,WeatherDisplay:10.37,2013-12-21 08:13:00,
2013-12-21 02:18:00,68.1,66.3,29.61,SE,145,2.3,2.3,94,0.02,RA,,0.02,WeatherDisplay:10.37,2013-12-21 08:18:00,
2013-12-21 02:23:00,68.0,66.5,29.61,SSE,160,0.0,0.0,95,0.02,CLR,,0.02,WeatherDisplay:10.37,2013-12-21 08:23:00,
2013-12-21 02:28:00,68.0,66.2,29.61,SW,227,3.0,3.0,94,0.02,CLR,,0.02,WeatherDisplay:10.37,2013-12-21 08:28:00,
2013-12-21 02:33:00,67.9,66.4,29.61,South,176,1.2,1.2,95,0.02,CLR,,0.02,WeatherDisplay:10.37,2013-12-21 08:33:00,
2013-12-21 02:38:00,67.9,66.4,29.59,ESE,119,2.3,2.3,95,0.02,CLR,,0.02,WeatherDisplay:10.37,2013-12-21 08:38:00,
2013-12-21 02:43:00,67.8,66.3,29.60,East,96,2.3,2.3,95,0.02,CLR,,0.02,WeatherDisplay:10.37,2013-12-21 08:43:00,
2013-12-21 02:48:00,67.7,66.2,29.58,East,80,2.3,2.3,95,0.02,RA,,0.03,WeatherDisplay:10.37,2013-12-21 08:48:00,
2013-12-21 02:53:00,67.7,66.2,29.58,SE,128,3.5,3.5,95,0.02,RA,,0.03,WeatherDisplay:10.37,2013-12-21 08:53:00,
2013-12-21 02:58:00,67.7,66.2,29.55,East,90,9.2,9.2,95,0.02,,,0.03,WeatherDisplay:10.37,2013-12-21 08:58:00,
2013-12-21 03:03:00,67.7,66.2,29.54,East,96,5.8,5.8,95,0.02,CLR,,0.03,WeatherDisplay:10.37,2013-12-21 09:03:00,
2013-12-21 03:08:00,67.7,66.2,29.53,East,90,6.9,6.9,95,0.02,CLR,,0.03,WeatherDisplay:10.37,2013-12-21 09:08:00,
2013-12-21 03:13:00,67.7,66.5,29.52,North,360,3.5,3.5,96,0.01,CLR,,0.03,WeatherDisplay:10.37,2013-12-21 09:13:00,
2013-12-21 03:18:00,67.8,66.6,29.53,South,175,3.5,3.5,96,0.01,CLR,,0.03,WeatherDisplay:10.37,2013-12-21 09:18:00,
2013-12-21 03:23:00,67.8,66.6,29.56,SE,144,4.6,4.6,96,0.01,CLR,,0.03,WeatherDisplay:10.37,2013-12-21 09:23:00,
2013-12-21 03:28:00,67.8,66.6,29.57,SSE,153,3.0,3.0,96,0.01,CLR,,0.03,WeatherDisplay:10.37,2013-12-21 09:28:00,
2013-12-21 03:33:00,67.8,66.6,29.57,South,186,1.2,1.2,96,0.01,CLR,,0.03,WeatherDisplay:10.37,2013-12-21 09:33:00,
2013-12-21 03:38:00,67.7,66.5,29.58,South,186,0.0,0.0,96,0.01,CLR,,0.03,WeatherDisplay:10.37,2013-12-21 09:38:00,
2013-12-21 03:43:00,67.7,66.5,29.57,SE,142,2.3,0.0,96,0.01,CLR,,0.03,WeatherDisplay:10.37,2013-12-21 09:43:00,
2013-12-21 03:48:00,67.6,66.4,29.57,SSE,159,2.3,2.3,96,0.00,CLR,,0.03,WeatherDisplay:10.37,2013-12-21 09:48:00,
2013-12-21 03:53:00,67.6,66.4,29.58,SSE,153,2.3,2.3,96,0.01,RA,,0.04,WeatherDisplay:10.37,2013-12-21 09:53:00,
2013-12-21 03:58:00,67.6,66.4,29.57,SSE,148,1.0,1.0,96,0.01,RA,,0.04,WeatherDisplay:10.37,2013-12-21 09:58:00,
2013-12-21 04:03:00,67.6,66.4,29.57,SE,144,1.2,1.2,96,0.01,,,0.04,WeatherDisplay:10.37,2013-12-21 10:03:00,
2013-12-21 04:08:00,67.5,66.3,29.57,SE,144,4.6,4.6,96,0.01,CLR,,0.04,WeatherDisplay:10.37,2013-12-21 10:08:00,
2013-12-21 04:13:00,67.5,66.3,29.56,ESE,121,3.5,3.5,96,0.01,CLR,,0.04,WeatherDisplay:10.37,2013-12-21 10:13:00,
2013-12-21 04:18:00,67.5,66.3,29.55,SE,130,1.2,1.2,96,0.01,CLR,,0.04,WeatherDisplay:10.37,2013-12-21 10:18:00,
2013-12-21 04:23:00,67.5,66.3,29.54,SSE,156,2.3,2.3,96,0.01,CLR,,0.04,WeatherDisplay:10.37,2013-12-21 10:23:00,
2013-12-21 04:28:00,67.4,66.2,29.54,SE,143,1.2,1.2,96,0.01,CLR,,0.04,WeatherDisplay:10.37,2013-12-21 10:28:00,
2013-12-21 04:33:00,67.4,66.2,29.53,SE,136,2.3,2.3,96,0.01,CLR,,0.04,WeatherDisplay:10.37,2013-12-21 10:33:00,
2013-12-21 04:38:00,67.4,66.2,29.51,East,79,3.5,3.5,96,0.01,CLR,,0.04,WeatherDisplay:10.37,2013-12-21 10:38:00,
2013-12-21 04:43:00,67.4,66.2,29.51,ESE,114,2.3,2.3,96,0.01,CLR,,0.04,WeatherDisplay:10.37,2013-12-21 10:43:00,
2013-12-21 04:48:00,67.4,66.2,29.52,SE,146,3.5,3.5,96,0.01,CLR,,0.04,WeatherDisplay:10.37,2013-12-21 10:48:00,
2013-12-21 04:53:00,67.4,66.2,29.53,ESE,116,1.2,1.2,96,0.00,CLR,,0.04,WeatherDisplay:10.37,2013-12-21 10:53:00,
2013-12-21 04:58:00,67.4,66.2,29.55,WSW,238,2.0,2.0,96,0.00,CLR,,0.04,WeatherDisplay:10.37,2013-12-21 10:58:00,
2013-12-21 05:03:00,67.4,66.2,29.57,WSW,254,3.5,3.5,96,0.00,CLR,,0.04,WeatherDisplay:10.37,2013-12-21 11:03:00,
2013-12-21 05:08:00,67.4,66.2,29.57,SSW,213,2.3,2.3,96,0.00,CLR,,0.04,WeatherDisplay:10.37,2013-12-21 11:08:00,
2013-12-21 05:13:00,67.4,66.2,29.57,SSW,213,0.0,0.0,96,0.01,RA,,0.05,WeatherDisplay:10.37,2013-12-21 11:13:00,
2013-12-21 05:18:00,67.4,66.2,29.55,SSW,213,0.0,0.0,96,0.01,RA,,0.05,WeatherDisplay:10.37,2013-12-21 11:18:00,
2013-12-21 05:23:00,67.3,66.1,29.53,SSW,213,0.0,0.0,96,0.01,,,0.05,WeatherDisplay:10.37,2013-12-21 11:23:00,
2013-12-21 05:28:00,67.3,66.1,29.53,NNE,31,1.0,1.0,96,0.01,CLR,,0.05,WeatherDisplay:10.37,2013-12-21 11:28:00,
2013-12-21 05:33:00,67.3,66.1,29.54,SE,125,0.0,0.0,96,0.01,CLR,,0.05,WeatherDisplay:10.37,2013-12-21 11:33:00,
2013-12-21 05:38:00,67.3,66.1,29.53,SE,125,0.0,0.0,96,0.01,CLR,,0.05,WeatherDisplay:10.37,2013-12-21 11:38:00,
2013-12-21 05:43:00,67.2,66.0,29.53,SE,125,0.0,0.0,96,0.01,CLR,,0.05,WeatherDisplay:10.37,2013-12-21 11:43:00,
2013-12-21 05:48:00,67.2,66.0,29.53,SE,125,0.0,0.0,96,0.01,CLR,,0.05,WeatherDisplay:10.37,2013-12-21 11:48:00,
2013-12-21 05:53:00,67.1,65.9,29.53,SE,125,0.0,0.0,96,0.01,CLR,,0.05,WeatherDisplay:10.37,2013-12-21 11:53:00,
2013-12-21 05:58:00,67.1,65.9,29.53,SE,125,0.0,0.0,96,0.01,CLR,,0.05,WeatherDisplay:10.37,2013-12-21 11:58:00,
2013-12-21 06:03:00,67.1,65.9,29.53,SE,125,0.0,0.0,96,0.01,CLR,,0.05,WeatherDisplay:10.37,2013-12-21 12:03:00,
2013-12-21 06:08:00,67.2,66.0,29.53,SE,125,0.0,0.0,96,0.01,CLR,,0.05,WeatherDisplay:10.37,2013-12-21 12:08:00,
2013-12-21 06:13:00,67.1,65.9,29.53,SE,125,0.0,0.0,96,0.00,CLR,,0.05,WeatherDisplay:10.37,2013-12-21 12:13:00,
2013-12-21 06:18:00,67.1,65.9,29.53,SE,125,0.0,0.0,96,0.00,CLR,,0.05,WeatherDisplay:10.37,2013-12-21 12:18:00,
2013-12-21 06:23:00,67.1,65.9,29.52,SE,125,0.0,0.0,96,0.00,CLR,,0.05,WeatherDisplay:10.37,2013-12-21 12:23:00,
2013-12-21 06:28:00,67.1,66.2,29.54,SW,219,4.6,4.6,97,0.00,CLR,,0.05,WeatherDisplay:10.37,2013-12-21 12:28:00,
2013-12-21 06:33:00,67.2,66.3,29.55,South,169,2.3,0.0,97,0.00,CLR,,0.05,WeatherDisplay:10.37,2013-12-21 12:33:00,
2013-12-21 06:38:00,67.3,66.4,29.53,SSW,192,1.2,1.2,97,0.00,CLR,,0.05,WeatherDisplay:10.37,2013-12-21 12:38:00,
2013-12-21 06:43:00,67.4,66.5,29.53,SE,134,4.6,4.6,97,0.00,CLR,,0.05,WeatherDisplay:10.37,2013-12-21 12:43:00,
2013-12-21 06:48:00,67.4,66.5,29.54,SE,143,3.5,3.5,97,0.00,CLR,,0.05,WeatherDisplay:10.37,2013-12-21 12:48:00,
2013-12-21 06:53:00,67.4,66.5,29.54,SSE,160,2.0,2.0,97,0.00,CLR,,0.05,WeatherDisplay:10.37,2013-12-21 12:53:00,
2013-12-21 06:58:00,67.4,66.2,29.53,SSE,155,0.0,0.0,96,0.00,CLR,,0.05,WeatherDisplay:10.37,2013-12-21 12:58:00,
2013-12-21 07:03:00,67.5,66.3,29.52,SSE,165,2.3,2.3,96,0.00,CLR,,0.05,WeatherDisplay:10.37,2013-12-21 13:03:00,
2013-12-21 07:08:00,67.5,66.3,29.53,South,174,1.2,1.2,96,0.00,CLR,,0.05,WeatherDisplay:10.37,2013-12-21 13:08:00,
2013-12-21 07:13:00,67.4,66.2,29.53,South,171,2.3,2.3,96,0.00,CLR,,0.05,WeatherDisplay:10.37,2013-12-21 13:13:00,
2013-12-21 07:18:00,67.4,66.2,29.54,SSE,157,2.3,0.0,96,0.00,CLR,,0.05,WeatherDisplay:10.37,2013-12-21 13:18:00,
2013-12-21 07:23:00,67.4,66.2,29.53,South,169,1.0,1.0,96,0.00,CLR,,0.05,WeatherDisplay:10.37,2013-12-21 13:23:00,
2013-12-21 07:28:00,67.4,66.2,29.54,SSE,163,3.0,3.0,96,0.00,CLR,,0.05,WeatherDisplay:10.37,2013-12-21 13:28:00,
2013-12-21 07:33:00,67.4,66.2,29.55,SSE,160,2.3,2.3,96,0.00,CLR,,0.05,WeatherDisplay:10.37,2013-12-21 13:33:00,
2013-12-21 07:38:00,67.4,66.2,29.55,South,188,1.2,1.2,96,0.00,CLR,,0.05,WeatherDisplay:10.37,2013-12-21 13:38:00,
2013-12-21 07:43:00,67.3,66.1,29.55,South,179,0.0,0.6,96,0.00,CLR,,0.05,WeatherDisplay:10.37,2013-12-21 13:43:00,
2013-12-21 07:48:00,67.4,66.2,29.55,South,178,2.3,2.3,96,0.00,CLR,,0.05,WeatherDisplay:10.37,2013-12-21 13:48:00,
2013-12-21 07:53:00,67.3,66.1,29.55,South,179,1.2,1.2,96,0.00,CLR,,0.05,WeatherDisplay:10.37,2013-12-21 13:53:00,
2013-12-21 07:58:00,67.3,66.1,29.55,South,178,0.0,0.0,96,0.00,CLR,,0.05,WeatherDisplay:10.37,2013-12-21 13:58:00,
2013-12-21 08:04:00,67.2,66.0,29.55,South,178,1.2,1.2,96,0.00,CLR,,0.05,WeatherDisplay:10.37,2013-12-21 14:04:00,
2013-12-21 08:09:00,67.2,66.3,29.55,South,178,1.2,1.2,97,0.00,CLR,,0.05,WeatherDisplay:10.37,2013-12-21 14:09:00,
2013-12-21 08:14:00,67.2,66.3,29.55,South,182,1.2,1.2,97,0.00,CLR,,0.05,WeatherDisplay:10.37,2013-12-21 14:14:00,
2013-12-21 08:19:00,67.2,66.3,29.55,SSW,196,2.3,2.3,97,0.00,CLR,,0.05,WeatherDisplay:10.37,2013-12-21 14:19:00,
2013-12-21 08:24:00,67.2,66.3,29.55,SSW,196,0.0,0.0,97,0.00,CLR,,0.05,WeatherDisplay:10.37,2013-12-21 14:24:00,
2013-12-21 08:29:00,67.3,66.4,29.55,SSW,196,1.0,1.0,97,0.00,CLR,,0.05,WeatherDisplay:10.37,2013-12-21 14:29:00,
2013-12-21 08:34:00,67.3,66.4,29.55,South,171,0.0,0.0,97,0.00,CLR,,0.05,WeatherDisplay:10.37,2013-12-21 14:34:00,
2013-12-21 08:39:00,67.3,66.4,29.55,South,171,1.2,1.2,97,0.00,CLR,,0.05,WeatherDisplay:10.37,2013-12-21 14:39:00,
2013-12-21 08:44:00,67.3,66.4,29.56,South,171,0.0,0.0,97,0.00,CLR,,0.05,WeatherDisplay:10.37,2013-12-21 14:44:00,
2013-12-21 08:49:00,67.3,66.4,29.56,South,171,0.0,0.0,97,0.00,CLR,,0.05,WeatherDisplay:10.37,2013-12-21 14:49:00,
2013-12-21 08:54:00,66.9,65.7,29.57,North,5,3.5,3.5,96,0.00,CLR,,0.05,WeatherDisplay:10.37,2013-12-21 14:54:00,
2013-12-21 08:59:00,64.8,61.8,29.57,North,350,3.5,3.5,90,0.00,CLR,,0.05,WeatherDisplay:10.37,2013-12-21 14:59:00,
2013-12-21 09:04:00,62.7,59.1,29.58,NW,317,4.6,4.6,88,0.00,CLR,,0.05,WeatherDisplay:10.37,2013-12-21 15:04:00,
2013-12-21 09:09:00,60.9,57.6,29.58,North,355,3.5,3.5,89,0.00,CLR,,0.05,WeatherDisplay:10.37,2013-12-21 15:09:00,
2013-12-21 09:14:00,59.6,56.7,29.58,North,355,5.8,5.8,90,0.00,CLR,,0.05,WeatherDisplay:10.37,2013-12-21 15:14:00,
2013-12-21 09:19:00,58.7,56.1,29.58,North,360,3.5,3.5,91,0.00,CLR,,0.05,WeatherDisplay:10.37,2013-12-21 15:19:00,
2013-12-21 09:24:00,58.1,55.5,29.59,NNE,32,2.3,2.3,91,0.00,CLR,,0.05,WeatherDisplay:10.37,2013-12-21 15:24:00,
2013-12-21 09:29:00,57.5,55.2,29.59,NE,52,3.5,3.5,92,0.00,CLR,,0.05,WeatherDisplay:10.37,2013-12-21 15:29:00,
2013-12-21 09:34:00,57.0,54.4,29.60,North,5,3.5,3.5,91,0.00,CLR,,0.05,WeatherDisplay:10.37,2013-12-21 15:34:00,
2013-12-21 09:39:00,56.5,54.2,29.60,NW,309,3.5,3.5,92,0.00,CLR,,0.05,WeatherDisplay:10.37,2013-12-21 15:39:00,
2013-12-21 09:44:00,56.2,54.2,29.61,NW,304,2.3,2.3,93,0.00,CLR,,0.05,WeatherDisplay:10.37,2013-12-21 15:44:00,
2013-12-21 09:49:00,56.0,54.0,29.62,WNW,301,5.8,5.8,93,0.00,CLR,,0.05,WeatherDisplay:10.37,2013-12-21 15:49:00,
2013-12-21 09:54:00,55.7,53.7,29.63,NW,313,3.5,3.5,93,0.00,CLR,,0.05,WeatherDisplay:10.37,2013-12-21 15:54:00,
2013-12-21 09:59:00,55.5,53.5,29.63,NW,305,6.9,6.9,93,0.00,CLR,,0.05,WeatherDisplay:10.37,2013-12-21 15:59:00,
2013-12-21 10:04:00,55.3,53.3,29.64,West,274,8.1,8.1,93,0.00,CLR,,0.05,WeatherDisplay:10.37,2013-12-21 16:04:00,
2013-12-21 10:09:00,55.0,53.0,29.64,WNW,300,9.2,9.2,93,0.00,CLR,,0.05,WeatherDisplay:10.37,2013-12-21 16:09:00,
2013-12-21 10:14:00,54.9,53.2,29.64,North,360,10.4,10.4,94,0.00,CLR,,0.05,WeatherDisplay:10.37,2013-12-21 16:14:00,
2013-12-21 10:19:00,54.9,53.2,29.64,NNW,334,6.9,6.9,94,0.01,RA,,0.06,WeatherDisplay:10.37,2013-12-21 16:19:00,
2013-12-21 10:24:00,54.9,53.2,29.65,NE,42,11.5,11.5,94,0.02,RA,,0.08,WeatherDisplay:10.37,2013-12-21 16:24:00,
2013-12-21 10:29:00,55.0,53.6,29.67,West,266,8.1,8.1,95,0.02,RA,,0.09,WeatherDisplay:10.37,2013-12-21 16:29:00,
2013-12-21 10:34:00,55.0,53.6,29.67,North,360,10.4,10.4,95,0.15,RA,,0.22,WeatherDisplay:10.37,2013-12-21 16:34:00,
2013-12-21 10:39:00,54.9,53.5,29.64,North,351,9.2,9.2,95,0.19,RA,,0.25,WeatherDisplay:10.37,2013-12-21 16:39:00,
2013-12-21 10:44:00,54.8,53.4,29.63,West,268,3.5,3.5,95,0.19,RA,,0.26,WeatherDisplay:10.37,2013-12-21 16:44:00,
2013-12-21 10:49:00,54.8,53.4,29.64,NNW,329,3.5,3.5,95,0.23,RA,,0.28,WeatherDisplay:10.37,2013-12-21 16:49:00,
2013-12-21 10:54:00,54.9,53.8,29.64,SW,225,1.2,1.2,96,0.26,RA,,0.32,WeatherDisplay:10.37,2013-12-21 16:54:00,
2013-12-21 10:59:00,54.9,53.8,29.65,SW,225,2.3,0.0,96,0.28,RA,,0.35,WeatherDisplay:10.37,2013-12-21 16:59:00,
2013-12-21 11:04:00,55.1,54.0,29.65,SW,225,0.0,0.0,96,0.29,RA,,0.36,WeatherDisplay:10.37,2013-12-21 17:04:00,
2013-12-21 11:09:00,55.1,54.0,29.64,NW,314,3.5,3.5,96,0.31,RA,,0.37,WeatherDisplay:10.37,2013-12-21 17:09:00,
2013-12-21 11:14:00,55.1,54.0,29.65,WNW,300,1.2,0.0,96,0.31,RA,,0.37,WeatherDisplay:10.37,2013-12-21 17:14:00,
2013-12-21 11:19:00,55.2,54.1,29.66,WNW,300,1.2,0.0,96,0.31,RA,,0.38,WeatherDisplay:10.37,2013-12-21 17:19:00,
2013-12-21 11:24:00,55.4,54.3,29.65,WNW,288,3.5,3.5,96,0.30,RA,,0.38,WeatherDisplay:10.37,2013-12-21 17:24:00,
2013-12-21 11:29:00,55.4,54.3,29.64,WNW,293,0.0,0.0,96,0.31,RA,,0.39,WeatherDisplay:10.37,2013-12-21 17:29:00,
2013-12-21 11:34:00,55.5,54.7,29.64,NW,321,1.2,1.2,97,0.18,RA,,0.39,WeatherDisplay:10.37,2013-12-21 17:34:00,
2013-12-21 11:39:00,55.6,54.8,29.64,NW,321,0.0,0.0,97,0.14,,,0.39,WeatherDisplay:10.37,2013-12-21 17:39:00,
2013-12-21 11:44:00,55.8,55.0,29.65,NW,321,0.0,0.0,97,0.14,CLR,,0.39,WeatherDisplay:10.37,2013-12-21 17:44:00,
2013-12-21 11:49:00,56.1,55.3,29.64,NW,320,1.2,0.0,97,0.11,CLR,,0.39,WeatherDisplay:10.37,2013-12-21 17:49:00,
2013-12-21 11:54:00,56.4,55.6,29.63,NW,321,1.2,1.2,97,0.08,CLR,,0.39,WeatherDisplay:10.37,2013-12-21 17:54:00,
2013-12-21 11:59:00,56.7,55.9,29.63,NNW,346,3.5,3.5,97,0.05,CLR,,0.39,WeatherDisplay:10.37,2013-12-21 17:59:00,
2013-12-21 12:04:00,56.9,56.1,29.64,NNW,329,2.3,0.0,97,0.04,CLR,,0.39,WeatherDisplay:10.37,2013-12-21 18:04:00,
2013-12-21 12:09:00,57.2,56.4,29.64,NW,311,1.2,1.2,97,0.02,CLR,,0.39,WeatherDisplay:10.37,2013-12-21 18:09:00,
2013-12-21 12:14:00,57.5,56.7,29.64,WNW,303,3.0,3.0,97,0.02,CLR,,0.39,WeatherDisplay:10.37,2013-12-21 18:14:00,
2013-12-21 12:19:00,57.7,56.9,29.64,WNW,302,4.6,4.6,97,0.01,CLR,,0.39,WeatherDisplay:10.37,2013-12-21 18:19:00,
2013-12-21 12:24:00,58.0,57.2,29.64,West,265,6.9,6.9,97,0.01,CLR,,0.39,WeatherDisplay:10.37,2013-12-21 18:24:00,
2013-12-21 12:29:00,58.2,57.4,29.64,NNE,12,3.0,3.0,97,0.00,CLR,,0.39,WeatherDisplay:10.37,2013-12-21 18:29:00,
2013-12-21 12:34:00,58.3,57.5,29.64,WNW,298,4.6,4.6,97,0.00,CLR,,0.39,WeatherDisplay:10.37,2013-12-21 18:34:00,
2013-12-21 12:39:00,58.5,57.7,29.63,WSW,258,3.5,3.5,97,0.00,CLR,,0.39,WeatherDisplay:10.37,2013-12-21 18:39:00,
2013-12-21 12:44:00,58.7,57.9,29.64,West,270,5.8,5.8,97,0.00,CLR,,0.39,WeatherDisplay:10.37,2013-12-21 18:44:00,
2013-12-21 12:49:00,58.8,58.0,29.63,WNW,282,4.6,4.6,97,0.00,CLR,,0.39,WeatherDisplay:10.37,2013-12-21 18:49:00,
2013-12-21 12:54:00,58.9,58.1,29.63,WNW,285,3.5,3.5,97,0.00,CLR,,0.39,WeatherDisplay:10.37,2013-12-21 18:54:00,
2013-12-21 12:59:00,59.1,58.2,29.63,WNW,296,11.0,11.0,97,0.00,CLR,,0.39,WeatherDisplay:10.37,2013-12-21 18:59:00,
2013-12-21 13:04:00,59.0,57.9,29.62,WNW,293,3.5,3.5,96,0.00,CLR,,0.39,WeatherDisplay:10.37,2013-12-21 19:04:00,
2013-12-21 13:09:00,59.3,58.2,29.62,NW,307,9.2,9.2,96,0.00,CLR,,0.39,WeatherDisplay:10.37,2013-12-21 19:09:00,
2013-12-21 13:14:00,59.4,58.3,29.61,WNW,300,5.8,5.8,96,0.00,CLR,,0.39,WeatherDisplay:10.37,2013-12-21 19:14:00,
2013-12-21 13:19:00,59.6,58.5,29.61,West,278,4.0,4.0,96,0.00,CLR,,0.39,WeatherDisplay:10.37,2013-12-21 19:19:00,
2013-12-21 13:24:00,59.9,58.8,29.61,SW,236,5.8,5.8,96,0.00,CLR,,0.39,WeatherDisplay:10.37,2013-12-21 19:24:00,
2013-12-21 13:29:00,60.1,58.1,29.61,NW,322,11.5,11.5,93,0.00,CLR,,0.39,WeatherDisplay:10.37,2013-12-21 19:29:00,
2013-12-21 13:34:00,60.6,59.2,29.60,West,271,6.9,6.9,95,0.00,CLR,,0.39,WeatherDisplay:10.37,2013-12-21 19:34:00,
2013-12-21 13:39:00,61.0,59.0,29.60,NW,317,6.9,6.9,93,0.00,CLR,,0.39,WeatherDisplay:10.37,2013-12-21 19:39:00,
2013-12-21 13:44:00,61.5,58.8,29.60,West,272,4.6,4.6,91,0.00,CLR,,0.39,WeatherDisplay:10.37,2013-12-21 19:44:00,
2013-12-21 13:49:00,61.9,58.3,29.61,West,262,10.0,10.0,88,0.00,CLR,,0.39,WeatherDisplay:10.37,2013-12-21 19:49:00,
2013-12-21 13:54:00,62.3,58.1,29.60,WSW,248,5.0,5.0,86,0.00,CLR,,0.39,WeatherDisplay:10.37,2013-12-21 19:54:00,
2013-12-21 13:59:00,62.7,57.8,29.60,WSW,252,6.9,6.9,84,0.15,RA,,0.54,WeatherDisplay:10.37,2013-12-21 19:59:00,
2013-12-21 14:04:00,63.1,58.5,29.60,WNW,286,2.3,2.3,85,0.15,RA,,0.54,WeatherDisplay:10.37,2013-12-21 20:04:00,
2013-12-21 14:09:00,63.4,57.5,29.60,West,264,11.5,11.5,81,0.15,CLR,,0.54,WeatherDisplay:10.37,2013-12-21 20:09:00,
2013-12-21 14:14:00,63.7,56.7,29.60,WNW,298,6.9,6.9,78,0.15,CLR,,0.54,WeatherDisplay:10.37,2013-12-21 20:14:00,
2013-12-21 14:19:00,63.9,56.9,29.59,West,271,8.1,8.1,78,0.15,CLR,,0.54,WeatherDisplay:10.37,2013-12-21 20:19:00,
2013-12-21 14:24:00,64.2,57.2,29.59,WNW,285,4.6,4.6,78,0.15,CLR,,0.54,WeatherDisplay:10.37,2013-12-21 20:24:00,
2013-12-21 14:29:00,64.4,55.9,29.59,NNW,342,8.1,8.1,74,0.15,CLR,,0.54,WeatherDisplay:10.37,2013-12-21 20:29:00,
2013-12-21 14:34:00,64.5,56.4,29.59,West,271,10.4,10.4,75,0.15,CLR,,0.54,WeatherDisplay:10.37,2013-12-21 20:34:00,
2013-12-21 14:39:00,64.6,55.0,29.59,West,267,8.1,8.1,71,0.15,CLR,,0.54,WeatherDisplay:10.37,2013-12-21 20:39:00,
2013-12-21 14:44:00,64.8,55.6,29.59,SW,221,18.4,18.4,72,0.15,CLR,,0.54,WeatherDisplay:10.37,2013-12-21 20:44:00,
2013-12-21 14:49:00,65.0,55.4,29.59,West,275,6.9,6.9,71,0.15,CLR,,0.54,WeatherDisplay:10.37,2013-12-21 20:49:00,
2013-12-21 14:54:00,65.2,55.9,29.59,NNW,338,5.8,5.8,72,0.15,CLR,,0.54,WeatherDisplay:10.37,2013-12-21 20:54:00,
2013-12-21 14:59:00,65.2,53.6,29.59,West,277,6.9,6.9,66,0.00,CLR,,0.54,WeatherDisplay:10.37,2013-12-21 20:59:00,
2013-12-21 15:04:00,65.2,52.7,29.59,WNW,296,8.1,8.1,64,0.00,CLR,,0.54,WeatherDisplay:10.37,2013-12-21 21:04:00,
2013-12-21 15:09:00,65.2,53.6,29.59,NW,309,8.1,8.1,66,0.00,CLR,,0.54,WeatherDisplay:10.37,2013-12-21 21:09:00,
2013-12-21 15:14:00,65.0,52.1,29.59,West,279,4.6,4.7,63,0.00,CLR,,0.54,WeatherDisplay:10.37,2013-12-21 21:14:00,
2013-12-21 15:19:00,65.0,50.8,29.59,WSW,250,3.5,3.5,60,0.00,CLR,,0.54,WeatherDisplay:10.37,2013-12-21 21:19:00,
2013-12-21 15:24:00,65.1,51.3,29.59,SW,235,3.5,3.5,61,0.00,CLR,,0.54,WeatherDisplay:10.37,2013-12-21 21:24:00,
2013-12-21 15:29:00,65.0,51.7,29.59,WSW,248,8.1,8.1,62,0.00,CLR,,0.54,WeatherDisplay:10.37,2013-12-21 21:29:00,
2013-12-21 15:34:00,65.0,51.7,29.60,SW,221,10.4,10.4,62,0.00,CLR,,0.54,WeatherDisplay:10.37,2013-12-21 21:34:00,
2013-12-21 15:39:00,65.0,51.7,29.60,NW,319,3.5,3.5,62,0.00,CLR,,0.54,WeatherDisplay:10.37,2013-12-21 21:39:00,
2013-12-21 15:44:00,64.9,51.6,29.60,WSW,243,10.4,10.4,62,0.00,CLR,,0.54,WeatherDisplay:10.37,2013-12-21 21:44:00,
2013-12-21 15:49:00,64.8,49.7,29.60,WSW,252,8.1,8.1,58,0.00,CLR,,0.54,WeatherDisplay:10.37,2013-12-21 21:49:00,
2013-12-21 15:54:00,64.8,50.6,29.60,NW,308,4.6,4.6,60,0.00,CLR,,0.54,WeatherDisplay:10.37,2013-12-21 21:54:00,
2013-12-21 15:59:00,64.7,48.2,29.60,West,273,6.9,6.9,55,0.00,CLR,,0.54,WeatherDisplay:10.37,2013-12-21 21:59:00,
2013-12-21 16:04:00,64.7,49.1,29.61,WSW,246,5.8,5.8,57,0.00,CLR,,0.54,WeatherDisplay:10.37,2013-12-21 22:04:00,
2013-12-21 16:09:00,64.7,49.1,29.61,WNW,302,3.5,3.5,57,0.00,CLR,,0.54,WeatherDisplay:10.37,2013-12-21 22:09:00,
2013-12-21 16:14:00,64.7,48.6,29.61,WNW,296,10.4,10.4,56,0.00,CLR,,0.54,WeatherDisplay:10.37,2013-12-21 22:14:00,
2013-12-21 16:19:00,64.6,49.0,29.61,South,171,5.8,5.8,57,0.00,CLR,,0.54,WeatherDisplay:10.37,2013-12-21 22:19:00,
2013-12-21 16:24:00,64.6,47.6,29.61,WSW,245,6.9,6.9,54,0.00,CLR,,0.54,WeatherDisplay:10.37,2013-12-21 22:24:00,
2013-12-21 16:29:00,64.4,48.8,29.61,West,265,8.1,8.1,57,0.00,CLR,,0.54,WeatherDisplay:10.37,2013-12-21 22:29:00,
2013-12-21 16:34:00,64.2,48.2,29.61,West,260,9.2,9.2,56,0.00,CLR,,0.54,WeatherDisplay:10.37,2013-12-21 22:34:00,
2013-12-21 16:39:00,64.0,47.0,29.61,WNW,282,6.9,6.9,54,0.00,CLR,,0.54,WeatherDisplay:10.37,2013-12-21 22:39:00,
2013-12-21 16:44:00,63.8,48.3,29.61,West,277,5.0,5.0,57,0.00,CLR,,0.54,WeatherDisplay:10.37,2013-12-21 22:44:00,
2013-12-21 16:49:00,63.5,48.0,29.62,West,267,5.8,5.8,57,0.00,CLR,,0.54,WeatherDisplay:10.37,2013-12-21 22:49:00,
2013-12-21 16:54:00,63.3,47.3,29.62,WNW,289,3.5,3.5,56,0.00,CLR,,0.54,WeatherDisplay:10.37,2013-12-21 22:54:00,
2013-12-21 16:59:00,63.1,49.0,29.62,WNW,294,2.3,2.3,60,0.00,CLR,,0.54,WeatherDisplay:10.37,2013-12-21 22:59:00,
2013-12-21 17:04:00,62.7,49.1,29.62,West,271,3.5,3.5,61,0.00,CLR,,0.54,WeatherDisplay:10.37,2013-12-21 23:04:00,
2013-12-21 17:09:00,62.3,47.8,29.62,SW,234,3.5,3.5,59,0.00,CLR,,0.54,WeatherDisplay:10.37,2013-12-21 23:09:00,
2013-12-21 17:14:00,62.0,48.4,29.62,West,281,1.2,1.2,61,0.00,CLR,,0.54,WeatherDisplay:10.37,2013-12-21 23:14:00,
2013-12-21 17:19:00,61.6,48.4,29.63,WNW,290,1.2,1.2,62,0.00,CLR,,0.54,WeatherDisplay:10.37,2013-12-21 23:19:00,
2013-12-21 17:24:00,61.2,48.5,29.63,WNW,286,1.2,1.2,63,0.00,CLR,,0.54,WeatherDisplay:10.37,2013-12-21 23:24:00,
2013-12-21 17:29:00,60.7,48.4,29.63,WSW,255,2.3,2.3,64,0.00,CLR,,0.54,WeatherDisplay:10.37,2013-12-21 23:29:00,
2013-12-21 17:34:00,60.2,48.4,29.63,WNW,288,3.5,3.5,65,0.00,CLR,,0.54,WeatherDisplay:10.37,2013-12-21 23:34:00,
2013-12-21 17:39:00,59.8,49.2,29.64,West,261,3.5,3.5,68,0.00,CLR,,0.54,WeatherDisplay:10.37,2013-12-21 23:39:00,
2013-12-21 17:44:00,59.4,49.2,29.64,West,281,1.2,1.2,69,0.00,CLR,,0.54,WeatherDisplay:10.37,2013-12-21 23:44:00,
2013-12-21 17:49:00,59.0,48.8,29.64,WNW,286,3.5,3.5,69,0.00,CLR,,0.54,WeatherDisplay:10.37,2013-12-21 23:49:00,
2013-12-21 17:54:00,58.6,48.5,29.65,WNW,284,3.5,3.5,69,0.00,CLR,,0.54,WeatherDisplay:10.37,2013-12-21 23:54:00,
2013-12-21 17:59:00,58.4,49.0,29.65,West,281,2.3,2.3,71,0.00,CLR,,0.54,WeatherDisplay:10.37,2013-12-21 23:59:00,
2013-12-21 18:04:00,58.0,47.9,29.66,West,259,1.2,1.2,69,0.00,CLR,,0.54,WeatherDisplay:10.37,2013-12-22 00:04:00,
2013-12-21 18:09:00,57.7,48.0,29.66,WNW,292,3.5,3.5,70,0.00,CLR,,0.54,WeatherDisplay:10.37,2013-12-22 00:09:00,
2013-12-21 18:14:00,57.4,47.7,29.66,West,281,2.3,0.0,70,0.00,CLR,,0.54,WeatherDisplay:10.37,2013-12-22 00:14:00,
2013-12-21 18:19:00,57.1,46.6,29.66,WNW,284,1.2,1.2,68,0.00,CLR,,0.54,WeatherDisplay:10.37,2013-12-22 00:19:00,
2013-12-21 18:24:00,56.9,48.0,29.66,West,279,2.3,2.3,72,0.00,CLR,,0.54,WeatherDisplay:10.37,2013-12-22 00:24:00,
2013-12-21 18:29:00,56.7,47.4,29.66,WNW,289,2.3,2.3,71,0.00,CLR,,0.54,WeatherDisplay:10.37,2013-12-22 00:29:00,
2013-12-21 18:34:00,56.4,46.0,29.66,West,279,0.0,0.3,68,0.00,CLR,,0.54,WeatherDisplay:10.37,2013-12-22 00:34:00,
2013-12-21 18:39:00,56.2,45.8,29.66,WNW,286,1.2,1.2,68,0.00,CLR,,0.54,WeatherDisplay:10.37,2013-12-22 00:39:00,
2013-12-21 18:44:00,56.2,46.5,29.67,NW,306,2.3,2.3,70,0.00,CLR,,0.54,WeatherDisplay:10.37,2013-12-22 00:44:00,
2013-12-21 18:49:00,56.1,46.1,29.67,WNW,297,2.3,2.3,69,0.00,CLR,,0.54,WeatherDisplay:10.37,2013-12-22 00:49:00,
2013-12-21 18:54:00,55.9,46.3,29.67,WNW,284,1.2,1.2,70,0.00,CLR,,0.54,WeatherDisplay:10.37,2013-12-22 00:54:00,
2013-12-21 18:59:00,55.8,44.6,29.67,West,281,2.3,2.3,66,0.00,CLR,,0.54,WeatherDisplay:10.37,2013-12-22 00:59:00,
2013-12-21 19:04:00,55.7,44.1,29.67,WNW,289,3.5,3.5,65,0.00,CLR,,0.54,WeatherDisplay:10.37,2013-12-22 01:04:00,
2013-12-21 19:09:00,55.7,44.9,29.68,WNW,288,1.2,1.2,67,0.00,CLR,,0.54,WeatherDisplay:10.37,2013-12-22 01:09:00,
2013-12-21 19:14:00,55.7,44.5,29.68,WNW,286,1.2,1.2,66,0.00,CLR,,0.54,WeatherDisplay:10.37,2013-12-22 01:14:00,
2013-12-21 19:19:00,55.6,44.4,29.68,WNW,288,3.5,3.5,66,0.00,CLR,,0.54,WeatherDisplay:10.37,2013-12-22 01:19:00,
2013-12-21 19:24:00,55.5,44.3,29.68,West,273,0.0,0.5,66,0.00,CLR,,0.54,WeatherDisplay:10.37,2013-12-22 01:24:00,
2013-12-21 19:29:00,55.3,43.7,29.68,West,271,1.2,1.2,65,0.00,CLR,,0.54,WeatherDisplay:10.37,2013-12-22 01:29:00,
2013-12-21 19:34:00,55.1,44.3,29.68,West,271,1.2,1.2,67,0.00,CLR,,0.54,WeatherDisplay:10.37,2013-12-22 01:34:00,
2013-12-21 19:39:00,55.0,44.6,29.69,WNW,283,1.2,1.2,68,0.00,CLR,,0.54,WeatherDisplay:10.37,2013-12-22 01:39:00,
2013-12-21 19:44:00,54.8,43.3,29.69,WNW,283,1.2,1.2,65,0.00,CLR,,0.54,WeatherDisplay:10.37,2013-12-22 01:44:00,
2013-12-21 19:49:00,54.6,42.7,29.69,WNW,283,1.2,0.0,64,0.00,CLR,,0.54,WeatherDisplay:10.37,2013-12-22 01:49:00,
2013-12-21 19:54:00,54.4,43.3,29.69,WNW,283,0.0,0.4,66,0.00,CLR,,0.54,WeatherDisplay:10.37,2013-12-22 01:54:00,
2013-12-21 19:59:00,54.4,43.7,29.70,WNW,283,2.3,0.0,67,0.00,CLR,,0.54,WeatherDisplay:10.37,2013-12-22 01:59:00,
2013-12-21 20:04:00,54.2,43.5,29.70,WNW,283,0.0,0.0,67,0.00,CLR,,0.54,WeatherDisplay:10.37,2013-12-22 02:04:00,
2013-12-21 20:09:00,54.1,43.4,29.70,WNW,283,0.0,0.0,67,0.00,CLR,,0.54,WeatherDisplay:10.37,2013-12-22 02:09:00,
2013-12-21 20:14:00,53.9,45.4,29.70,WNW,283,0.0,0.0,73,0.00,CLR,,0.54,WeatherDisplay:10.37,2013-12-22 02:14:00,
2013-12-21 20:19:00,53.7,45.2,29.71,WNW,283,0.0,0.0,73,0.00,CLR,,0.54,WeatherDisplay:10.37,2013-12-22 02:19:00,
2013-12-21 20:24:00,53.4,44.6,29.71,WNW,283,0.0,0.0,72,0.00,CLR,,0.54,WeatherDisplay:10.37,2013-12-22 02:24:00,
2013-12-21 20:29:00,53.1,43.9,29.72,WNW,283,0.0,0.0,71,0.00,CLR,,0.54,WeatherDisplay:10.37,2013-12-22 02:29:00,
2013-12-21 20:34:00,52.8,42.9,29.72,WNW,283,0.0,0.0,69,0.00,CLR,,0.54,WeatherDisplay:10.37,2013-12-22 02:34:00,
2013-12-21 20:39:00,52.5,44.1,29.72,WNW,283,0.0,0.0,73,0.00,CLR,,0.54,WeatherDisplay:10.37,2013-12-22 02:39:00,
2013-12-21 20:44:00,52.1,43.0,29.72,WNW,283,0.0,0.0,71,0.00,CLR,,0.54,WeatherDisplay:10.37,2013-12-22 02:44:00,
2013-12-21 20:49:00,51.7,43.0,29.73,WNW,283,0.0,0.0,72,0.00,CLR,,0.54,WeatherDisplay:10.37,2013-12-22 02:49:00,
2013-12-21 20:54:00,51.4,43.0,29.73,WNW,283,0.0,0.0,73,0.00,CLR,,0.54,WeatherDisplay:10.37,2013-12-22 02:54:00,
2013-12-21 20:59:00,51.2,44.2,29.74,WNW,283,0.0,0.0,77,0.00,CLR,,0.54,WeatherDisplay:10.37,2013-12-22 02:59:00,
2013-12-21 21:04:00,51.0,44.4,29.74,WNW,283,0.0,0.0,78,0.00,CLR,,0.54,WeatherDisplay:10.37,2013-12-22 03:04:00,
2013-12-21 21:09:00,50.7,44.1,29.74,WNW,283,0.0,0.0,78,0.00,CLR,,0.54,WeatherDisplay:10.37,2013-12-22 03:09:00,
2013-12-21 21:14:00,50.4,43.8,29.75,WNW,283,1.2,0.0,78,0.00,CLR,,0.54,WeatherDisplay:10.37,2013-12-22 03:14:00,
2013-12-21 21:19:00,50.1,43.8,29.75,SSW,210,0.0,0.0,79,0.00,CLR,,0.54,WeatherDisplay:10.37,2013-12-22 03:19:00,
2013-12-21 21:24:00,49.9,43.6,29.75,SSW,210,0.0,0.0,79,0.00,CLR,,0.54,WeatherDisplay:10.37,2013-12-22 03:24:00,
2013-12-21 21:29:00,49.7,43.5,29.75,SSW,210,0.0,0.0,79,0.00,CLR,,0.54,WeatherDisplay:10.37,2013-12-22 03:29:00,
2013-12-21 21:34:00,49.5,43.6,29.76,SSW,210,0.0,0.0,80,0.00,CLR,,0.54,WeatherDisplay:10.37,2013-12-22 03:34:00,
2013-12-21 21:39:00,49.3,43.4,29.76,SSW,210,0.0,0.0,80,0.00,CLR,,0.54,WeatherDisplay:10.37,2013-12-22 03:39:00,
2013-12-21 21:44:00,49.2,43.9,29.77,SW,219,0.0,0.2,82,0.00,CLR,,0.54,WeatherDisplay:10.37,2013-12-22 03:44:00,
2013-12-21 21:49:00,49.0,43.4,29.77,SW,217,0.0,0.0,81,0.00,CLR,,0.54,WeatherDisplay:10.37,2013-12-22 03:49:00,
2013-12-21 21:54:00,48.9,43.6,29.77,SW,217,1.2,0.0,82,0.00,CLR,,0.54,WeatherDisplay:10.37,2013-12-22 03:54:00,
2013-12-21 21:59:00,48.8,44.2,29.77,SW,217,0.0,0.0,84,0.00,CLR,,0.54,WeatherDisplay:10.37,2013-12-22 03:59:00,
2013-12-21 22:04:00,48.8,43.9,29.77,SW,217,0.0,0.1,83,0.00,CLR,,0.54,WeatherDisplay:10.37,2013-12-22 04:04:00,
2013-12-21 22:09:00,48.6,43.7,29.78,SW,217,0.0,0.3,83,0.00,CLR,,0.54,WeatherDisplay:10.37,2013-12-22 04:09:00,
2013-12-21 22:14:00,48.5,43.9,29.78,SW,217,0.0,0.3,84,0.00,CLR,,0.54,WeatherDisplay:10.37,2013-12-22 04:14:00,
2013-12-21 22:19:00,48.5,43.9,29.79,SW,217,0.0,0.0,84,0.00,CLR,,0.54,WeatherDisplay:10.37,2013-12-22 04:19:00,
2013-12-21 22:24:00,48.4,43.8,29.79,WSW,247,0.0,0.1,84,0.00,CLR,,0.54,WeatherDisplay:10.37,2013-12-22 04:24:00,
2013-12-21 22:29:00,48.3,43.7,29.79,WSW,247,0.0,0.0,84,0.00,CLR,,0.54,WeatherDisplay:10.37,2013-12-22 04:29:00,
2013-12-21 22:34:00,48.2,43.6,29.79,WSW,247,0.0,0.0,84,0.00,CLR,,0.54,WeatherDisplay:10.37,2013-12-22 04:34:00,
2013-12-21 22:39:00,48.1,43.5,29.79,WSW,247,0.0,0.0,84,0.00,CLR,,0.54,WeatherDisplay:10.37,2013-12-22 04:39:00,
2013-12-21 22:44:00,48.0,43.4,29.80,WSW,247,0.0,0.0,84,0.00,CLR,,0.54,WeatherDisplay:10.37,2013-12-22 04:44:00,
2013-12-21 22:49:00,47.9,43.3,29.80,WSW,247,0.0,0.0,84,0.00,CLR,,0.54,WeatherDisplay:10.37,2013-12-22 04:49:00,
2013-12-21 22:54:00,47.8,43.2,29.80,WSW,247,0.0,0.0,84,0.00,CLR,,0.54,WeatherDisplay:10.37,2013-12-22 04:54:00,
2013-12-21 22:59:00,47.7,43.1,29.80,WSW,247,0.0,0.0,84,0.00,CLR,,0.54,WeatherDisplay:10.37,2013-12-22 04:59:00,
2013-12-21 23:01:00,47.6,43.0,29.80,WSW,247,0.0,0.0,84,0.00,CLR,,0.54,WeatherDisplay:10.37,2013-12-22 05:01:00,
2013-12-21 23:02:00,47.6,43.0,29.81,WSW,247,0.0,0.0,84,0.00,CLR,,0.54,WeatherDisplay:10.37,2013-12-22 05:02:00,
2013-12-21 23:07:00,47.5,42.9,29.81,WSW,247,0.0,0.0,84,0.00,CLR,,0.54,WeatherDisplay:10.37,2013-12-22 05:07:00,
2013-12-21 23:12:00,47.3,42.7,29.81,WSW,247,0.0,0.0,84,0.00,CLR,,0.54,WeatherDisplay:10.37,2013-12-22 05:12:00,
2013-12-21 23:17:00,47.2,42.6,29.82,WSW,247,0.0,0.0,84,0.00,CLR,,0.54,WeatherDisplay:10.37,2013-12-22 05:17:00,
2013-12-21 23:22:00,47.0,42.4,29.82,WSW,247,0.0,0.0,84,0.00,CLR,,0.54,WeatherDisplay:10.37,2013-12-22 05:22:00,
2013-12-21 23:27:00,46.9,42.3,29.83,WSW,247,1.2,0.0,84,0.00,CLR,,0.54,WeatherDisplay:10.37,2013-12-22 05:27:00,
2013-12-21 23:32:00,46.9,42.6,29.83,WSW,247,0.0,0.0,85,0.00,CLR,,0.54,WeatherDisplay:10.37,2013-12-22 05:32:00,
2013-12-21 23:37:00,46.8,42.8,29.83,WSW,247,0.0,0.0,86,0.00,CLR,,0.54,WeatherDisplay:10.37,2013-12-22 05:37:00,
2013-12-21 23:42:00,46.8,42.8,29.83,WSW,247,0.0,0.0,86,0.00,CLR,,0.54,WeatherDisplay:10.37,2013-12-22 05:42:00,
2013-12-21 23:47:00,46.8,42.8,29.83,WSW,247,0.0,0.0,86,0.00,CLR,,0.54,WeatherDisplay:10.37,2013-12-22 05:47:00,
2013-12-21 23:52:00,46.7,42.7,29.83,WSW,247,0.0,0.0,86,0.00,CLR,,0.54,WeatherDisplay:10.37,2013-12-22 05:52:00,
2013-12-21 23:57:00,46.6,42.3,29.83,WSW,247,0.0,0.0,85,0.00,CLR,,0.54,WeatherDisplay:10.37,2013-12-22 05:57:00,